Main page
METAR-TAF:

METAR-TAF

Airports :

Curaçao, Netherlands Antilles

Curaçao International Airport

latitude: 12-12N, longitude: 068-58W, elevation: 9 m

Current weather observation

The report was made 1 hour and 1 minutes ago, at 11:00 UTC
Wind 6 kt from the Southeast
Temperature 28°C
Humidity 84%
Pressure 1013 hPa
Visibility 10 km or more
Few clouds at a height of 1700 ft

METAR: TNCC 211100Z 13006KT 9999 FEW017 28/25 Q1013 NOSIG

Time: 08:01 (12:01 UTC)

Forecast

The report was made 2 hours and 31 minutes ago, at 09:30 UTC
Forecast valid from 21 at 12 UTC to 22 at 12 UTC
Wind 13 kt from the East
Visibility 10 km or more
Scattered clouds at a height of 2000 ft
Probability 30% :
Temporary
from 21 at 12 UTC to 21 at 18 UTC
Visibility: 5000 m
Few clouds at a height of 1200 ft, Cumulonimbus.
Broken clouds at a height of 1400 ft
rain showers

TAF: TNCC 210930Z 2112/2212 10013KT 9999 SCT020 PROB30 TEMPO 2112/2118 5000 SHRA FEW012CB BKN014

Weather observations and forecasts of more than 4000 airports (METAR and TAF reports).

The available stations are represented by yellow and red dots on the map.

Hover mouse over dot to see the name of the station.

Then click to see weather observations and forecasts.

To change the map : click on the green buttons with a black cross to zoom in, on the green button with a dash to zoom out, or on the green arrows for adjacent maps.


METAR-TAF: